sensor_id;sensor_type;location;lat;lon;timestamp;P1;durP1;ratioP1;P2;durP2;ratioP2
12838;SDS011;6486;51.034;5.262;2022-11-20T00:00:52;9.63;;;4.83;;
12838;SDS011;6486;51.034;5.262;2022-11-20T00:03:18;9.47;;;4.60;;
12838;SDS011;6486;51.034;5.262;2022-11-20T00:05:44;12.03;;;4.53;;
12838;SDS011;6486;51.034;5.262;2022-11-20T00:08:10;9.57;;;4.10;;
12838;SDS011;6486;51.034;5.262;2022-11-20T00:10:36;6.33;;;3.57;;
12838;SDS011;6486;51.034;5.262;2022-11-20T00:13:03;8.23;;;3.20;;
12838;SDS011;6486;51.034;5.262;2022-11-20T00:15:29;5.90;;;4.37;;
12838;SDS011;6486;51.034;5.262;2022-11-20T00:17:54;6.10;;;3.87;;
12838;SDS011;6486;51.034;5.262;2022-11-20T00:20:20;10.47;;;4.67;;
12838;SDS011;6486;51.034;5.262;2022-11-20T00:22:46;7.93;;;4.77;;
12838;SDS011;6486;51.034;5.262;2022-11-20T00:25:11;10.13;;;3.40;;
12838;SDS011;6486;51.034;5.262;2022-11-20T00:27:37;8.20;;;3.67;;
12838;SDS011;6486;51.034;5.262;2022-11-20T00:30:03;12.73;;;4.27;;
12838;SDS011;6486;51.034;5.262;2022-11-20T00:32:29;8.40;;;3.90;;
12838;SDS011;6486;51.034;5.262;2022-11-20T00:34:55;6.77;;;3.23;;
12838;SDS011;6486;51.034;5.262;2022-11-20T00:37:21;9.50;;;4.73;;
12838;SDS011;6486;51.034;5.262;2022-11-20T00:39:46;6.20;;;3.37;;
12838;SDS011;6486;51.034;5.262;2022-11-20T00:42:12;8.30;;;4.30;;
12838;SDS011;6486;51.034;5.262;2022-11-20T00:44:37;6.97;;;3.90;;
12838;SDS011;6486;51.034;5.262;2022-11-20T00:47:03;4.83;;;3.20;;
12838;SDS011;6486;51.034;5.262;2022-11-20T00:49:29;8.83;;;3.90;;
12838;SDS011;6486;51.034;5.262;2022-11-20T00:51:54;6.73;;;3.93;;
12838;SDS011;6486;51.034;5.262;2022-11-20T00:54:20;12.47;;;5.30;;
12838;SDS011;6486;51.034;5.262;2022-11-20T00:56:46;9.00;;;3.43;;
12838;SDS011;6486;51.034;5.262;2022-11-20T00:59:11;7.33;;;4.07;;
12838;SDS011;6486;51.034;5.262;2022-11-20T01:01:37;7.23;;;3.90;;
12838;SDS011;6486;51.034;5.262;2022-11-20T01:04:03;7.30;;;3.43;;
12838;SDS011;6486;51.034;5.262;2022-11-20T01:06:30;10.60;;;4.67;;
12838;SDS011;6486;51.034;5.262;2022-11-20T01:08:57;13.93;;;5.27;;
12838;SDS011;6486;51.034;5.262;2022-11-20T01:11:34;9.33;;;4.30;;
12838;SDS011;6486;51.034;5.262;2022-11-20T01:14:02;6.60;;;4.33;;
12838;SDS011;6486;51.034;5.262;2022-11-20T01:16:29;12.77;;;5.87;;
12838;SDS011;6486;51.034;5.262;2022-11-20T01:18:59;6.60;;;3.07;;
12838;SDS011;6486;51.034;5.262;2022-11-20T01:21:27;6.57;;;3.77;;
12838;SDS011;6486;51.034;5.262;2022-11-20T01:23:55;8.87;;;4.43;;
12838;SDS011;6486;51.034;5.262;2022-11-20T01:26:22;8.47;;;3.73;;
12838;SDS011;6486;51.034;5.262;2022-11-20T01:28:49;4.87;;;2.87;;
12838;SDS011;6486;51.034;5.262;2022-11-20T01:33:43;5.80;;;3.63;;
12838;SDS011;6486;51.034;5.262;2022-11-20T01:36:12;6.77;;;3.83;;
12838;SDS011;6486;51.034;5.262;2022-11-20T01:38:38;11.13;;;4.30;;
12838;SDS011;6486;51.034;5.262;2022-11-20T01:41:04;7.23;;;4.43;;
12838;SDS011;6486;51.034;5.262;2022-11-20T01:43:30;9.17;;;3.90;;
12838;SDS011;6486;51.034;5.262;2022-11-20T01:45:58;5.67;;;3.43;;
12838;SDS011;6486;51.034;5.262;2022-11-20T01:48:34;13.87;;;5.77;;
12838;SDS011;6486;51.034;5.262;2022-11-20T01:51:03;10.63;;;6.17;;
12838;SDS011;6486;51.034;5.262;2022-11-20T01:53:37;10.33;;;4.67;;
12838;SDS011;6486;51.034;5.262;2022-11-20T01:56:05;13.13;;;4.53;;
12838;SDS011;6486;51.034;5.262;2022-11-20T01:58:35;12.27;;;4.47;;
12838;SDS011;6486;51.034;5.262;2022-11-20T02:01:07;8.60;;;3.60;;
12838;SDS011;6486;51.034;5.262;2022-11-20T02:03:33;8.77;;;4.27;;
12838;SDS011;6486;51.034;5.262;2022-11-20T02:08:27;6.73;;;3.60;;
12838;SDS011;6486;51.034;5.262;2022-11-20T02:10:53;8.37;;;4.03;;
12838;SDS011;6486;51.034;5.262;2022-11-20T02:13:19;5.93;;;2.83;;
12838;SDS011;6486;51.034;5.262;2022-11-20T02:16:03;8.73;;;4.97;;
12838;SDS011;6486;51.034;5.262;2022-11-20T02:18:30;6.63;;;3.47;;
12838;SDS011;6486;51.034;5.262;2022-11-20T02:21:02;6.43;;;2.80;;
12838;SDS011;6486;51.034;5.262;2022-11-20T02:23:39;11.73;;;4.77;;
12838;SDS011;6486;51.034;5.262;2022-11-20T02:26:27;8.00;;;3.83;;
12838;SDS011;6486;51.034;5.262;2022-11-20T02:28:55;10.83;;;4.57;;
12838;SDS011;6486;51.034;5.262;2022-11-20T02:31:21;6.77;;;4.30;;
12838;SDS011;6486;51.034;5.262;2022-11-20T02:33:47;5.73;;;3.40;;
12838;SDS011;6486;51.034;5.262;2022-11-20T02:36:14;8.07;;;3.67;;
12838;SDS011;6486;51.034;5.262;2022-11-20T02:38:41;8.77;;;3.97;;
12838;SDS011;6486;51.034;5.262;2022-11-20T02:41:08;8.50;;;3.97;;
12838;SDS011;6486;51.034;5.262;2022-11-20T02:43:33;6.47;;;3.23;;
12838;SDS011;6486;51.034;5.262;2022-11-20T02:45:59;5.30;;;3.97;;
12838;SDS011;6486;51.034;5.262;2022-11-20T02:48:24;8.57;;;4.50;;
12838;SDS011;6486;51.034;5.262;2022-11-20T02:50:50;10.13;;;3.83;;
12838;SDS011;6486;51.034;5.262;2022-11-20T02:53:16;7.33;;;3.53;;
12838;SDS011;6486;51.034;5.262;2022-11-20T02:55:41;7.73;;;4.50;;
12838;SDS011;6486;51.034;5.262;2022-11-20T02:58:07;7.37;;;4.03;;
12838;SDS011;6486;51.034;5.262;2022-11-20T03:00:33;9.37;;;3.73;;
12838;SDS011;6486;51.034;5.262;2022-11-20T03:02:58;7.77;;;3.20;;
12838;SDS011;6486;51.034;5.262;2022-11-20T03:05:24;6.87;;;3.60;;
12838;SDS011;6486;51.034;5.262;2022-11-20T03:07:50;7.17;;;3.50;;
12838;SDS011;6486;51.034;5.262;2022-11-20T03:10:15;9.70;;;4.73;;
12838;SDS011;6486;51.034;5.262;2022-11-20T03:12:41;5.20;;;3.33;;
12838;SDS011;6486;51.034;5.262;2022-11-20T03:15:07;8.33;;;4.57;;
12838;SDS011;6486;51.034;5.262;2022-11-20T03:17:33;7.53;;;4.13;;
12838;SDS011;6486;51.034;5.262;2022-11-20T03:19:58;9.63;;;3.70;;
12838;SDS011;6486;51.034;5.262;2022-11-20T03:22:24;8.07;;;3.40;;
12838;SDS011;6486;51.034;5.262;2022-11-20T03:24:50;15.97;;;3.73;;
12838;SDS011;6486;51.034;5.262;2022-11-20T03:27:16;12.73;;;5.17;;
12838;SDS011;6486;51.034;5.262;2022-11-20T03:29:41;7.57;;;3.40;;
12838;SDS011;6486;51.034;5.262;2022-11-20T03:32:07;11.10;;;4.17;;
12838;SDS011;6486;51.034;5.262;2022-11-20T03:34:33;5.90;;;3.57;;
12838;SDS011;6486;51.034;5.262;2022-11-20T03:36:58;5.87;;;3.27;;
12838;SDS011;6486;51.034;5.262;2022-11-20T03:39:24;8.90;;;4.23;;
12838;SDS011;6486;51.034;5.262;2022-11-20T03:41:49;5.67;;;4.27;;
12838;SDS011;6486;51.034;5.262;2022-11-20T03:44:15;8.27;;;4.67;;
12838;SDS011;6486;51.034;5.262;2022-11-20T03:46:41;7.13;;;3.77;;
12838;SDS011;6486;51.034;5.262;2022-11-20T03:49:06;6.63;;;4.00;;
12838;SDS011;6486;51.034;5.262;2022-11-20T03:51:33;9.13;;;4.00;;
12838;SDS011;6486;51.034;5.262;2022-11-20T03:54:02;4.70;;;2.63;;
12838;SDS011;6486;51.034;5.262;2022-11-20T03:56:31;10.67;;;4.80;;
12838;SDS011;6486;51.034;5.262;2022-11-20T03:58:58;8.33;;;4.17;;
12838;SDS011;6486;51.034;5.262;2022-11-20T04:01:25;5.43;;;3.90;;
12838;SDS011;6486;51.034;5.262;2022-11-20T04:03:53;9.73;;;4.20;;
12838;SDS011;6486;51.034;5.262;2022-11-20T04:06:21;5.43;;;3.63;;
12838;SDS011;6486;51.034;5.262;2022-11-20T04:08:51;12.13;;;5.07;;
12838;SDS011;6486;51.034;5.262;2022-11-20T04:11:20;7.27;;;4.17;;
12838;SDS011;6486;51.034;5.262;2022-11-20T04:13:48;9.50;;;3.57;;
12838;SDS011;6486;51.034;5.262;2022-11-20T04:16:19;6.63;;;3.60;;
12838;SDS011;6486;51.034;5.262;2022-11-20T04:18:45;6.03;;;4.10;;
12838;SDS011;6486;51.034;5.262;2022-11-20T04:21:11;9.80;;;4.57;;
12838;SDS011;6486;51.034;5.262;2022-11-20T04:23:37;9.00;;;3.50;;
12838;SDS011;6486;51.034;5.262;2022-11-20T04:26:08;12.53;;;4.20;;
12838;SDS011;6486;51.034;5.262;2022-11-20T04:28:35;8.80;;;4.13;;
12838;SDS011;6486;51.034;5.262;2022-11-20T04:31:05;8.00;;;4.33;;
12838;SDS011;6486;51.034;5.262;2022-11-20T04:33:42;7.67;;;3.73;;
12838;SDS011;6486;51.034;5.262;2022-11-20T04:36:15;6.43;;;2.97;;
12838;SDS011;6486;51.034;5.262;2022-11-20T04:38:45;9.07;;;4.60;;
12838;SDS011;6486;51.034;5.262;2022-11-20T04:41:15;11.53;;;4.40;;
12838;SDS011;6486;51.034;5.262;2022-11-20T04:43:45;9.07;;;3.70;;
12838;SDS011;6486;51.034;5.262;2022-11-20T04:46:13;6.37;;;4.13;;
12838;SDS011;6486;51.034;5.262;2022-11-20T04:48:39;9.97;;;4.50;;
12838;SDS011;6486;51.034;5.262;2022-11-20T04:51:05;7.30;;;5.10;;
12838;SDS011;6486;51.034;5.262;2022-11-20T04:53:31;10.07;;;4.97;;
12838;SDS011;6486;51.034;5.262;2022-11-20T04:56:00;8.37;;;4.97;;
12838;SDS011;6486;51.034;5.262;2022-11-20T04:58:30;16.87;;;6.77;;
12838;SDS011;6486;51.034;5.262;2022-11-20T05:01:15;12.33;;;5.70;;
12838;SDS011;6486;51.034;5.262;2022-11-20T05:03:45;19.10;;;6.00;;
12838;SDS011;6486;51.034;5.262;2022-11-20T05:06:12;11.80;;;5.13;;
12838;SDS011;6486;51.034;5.262;2022-11-20T05:08:39;9.80;;;4.17;;
12838;SDS011;6486;51.034;5.262;2022-11-20T05:11:06;12.53;;;6.33;;
12838;SDS011;6486;51.034;5.262;2022-11-20T05:13:33;22.63;;;5.87;;
12838;SDS011;6486;51.034;5.262;2022-11-20T05:16:03;28.87;;;7.30;;
12838;SDS011;6486;51.034;5.262;2022-11-20T05:18:31;8.53;;;4.00;;
12838;SDS011;6486;51.034;5.262;2022-11-20T05:20:57;13.80;;;4.17;;
12838;SDS011;6486;51.034;5.262;2022-11-20T05:23:24;8.80;;;4.03;;
12838;SDS011;6486;51.034;5.262;2022-11-20T05:25:53;9.80;;;4.53;;
12838;SDS011;6486;51.034;5.262;2022-11-20T05:28:20;10.57;;;4.80;;
12838;SDS011;6486;51.034;5.262;2022-11-20T05:30:46;9.17;;;4.93;;
12838;SDS011;6486;51.034;5.262;2022-11-20T05:33:12;14.07;;;4.33;;
12838;SDS011;6486;51.034;5.262;2022-11-20T05:35:38;13.97;;;4.40;;
12838;SDS011;6486;51.034;5.262;2022-11-20T05:38:03;11.00;;;6.27;;
12838;SDS011;6486;51.034;5.262;2022-11-20T05:40:29;13.37;;;5.70;;
12838;SDS011;6486;51.034;5.262;2022-11-20T05:42:55;8.33;;;4.97;;
12838;SDS011;6486;51.034;5.262;2022-11-20T05:45:20;10.87;;;5.70;;
12838;SDS011;6486;51.034;5.262;2022-11-20T05:47:46;12.20;;;5.60;;
12838;SDS011;6486;51.034;5.262;2022-11-20T05:50:12;8.27;;;4.47;;
12838;SDS011;6486;51.034;5.262;2022-11-20T05:52:38;9.67;;;4.97;;
12838;SDS011;6486;51.034;5.262;2022-11-20T05:55:04;14.03;;;4.53;;
12838;SDS011;6486;51.034;5.262;2022-11-20T05:57:30;11.30;;;5.40;;
12838;SDS011;6486;51.034;5.262;2022-11-20T05:59:56;8.23;;;4.67;;
12838;SDS011;6486;51.034;5.262;2022-11-20T06:02:22;11.73;;;4.47;;
12838;SDS011;6486;51.034;5.262;2022-11-20T06:04:48;8.80;;;3.13;;
12838;SDS011;6486;51.034;5.262;2022-11-20T06:07:13;12.43;;;4.77;;
12838;SDS011;6486;51.034;5.262;2022-11-20T06:09:39;19.70;;;5.57;;
12838;SDS011;6486;51.034;5.262;2022-11-20T06:12:05;6.90;;;3.67;;
12838;SDS011;6486;51.034;5.262;2022-11-20T06:14:30;13.17;;;5.57;;
12838;SDS011;6486;51.034;5.262;2022-11-20T06:16:56;19.03;;;6.83;;
12838;SDS011;6486;51.034;5.262;2022-11-20T06:19:22;12.87;;;4.70;;
12838;SDS011;6486;51.034;5.262;2022-11-20T06:21:48;10.70;;;5.07;;
12838;SDS011;6486;51.034;5.262;2022-11-20T06:24:17;9.40;;;4.63;;
12838;SDS011;6486;51.034;5.262;2022-11-20T06:26:43;8.50;;;4.90;;
12838;SDS011;6486;51.034;5.262;2022-11-20T06:29:09;9.07;;;3.87;;
12838;SDS011;6486;51.034;5.262;2022-11-20T06:31:34;12.10;;;5.17;;
12838;SDS011;6486;51.034;5.262;2022-11-20T06:34:03;11.87;;;6.00;;
12838;SDS011;6486;51.034;5.262;2022-11-20T06:36:30;9.93;;;4.30;;
12838;SDS011;6486;51.034;5.262;2022-11-20T06:38:56;12.30;;;5.50;;
12838;SDS011;6486;51.034;5.262;2022-11-20T06:41:21;9.90;;;4.30;;
12838;SDS011;6486;51.034;5.262;2022-11-20T06:43:47;8.53;;;4.40;;
12838;SDS011;6486;51.034;5.262;2022-11-20T06:46:14;12.23;;;5.17;;
12838;SDS011;6486;51.034;5.262;2022-11-20T06:48:45;10.80;;;5.90;;
12838;SDS011;6486;51.034;5.262;2022-11-20T06:51:12;11.67;;;4.80;;
12838;SDS011;6486;51.034;5.262;2022-11-20T06:53:38;37.33;;;4.97;;
12838;SDS011;6486;51.034;5.262;2022-11-20T06:56:04;10.37;;;5.20;;
12838;SDS011;6486;51.034;5.262;2022-11-20T06:58:31;15.17;;;5.17;;
12838;SDS011;6486;51.034;5.262;2022-11-20T07:00:58;8.90;;;3.63;;
12838;SDS011;6486;51.034;5.262;2022-11-20T07:03:24;11.60;;;6.33;;
12838;SDS011;6486;51.034;5.262;2022-11-20T07:05:50;14.43;;;4.47;;
12838;SDS011;6486;51.034;5.262;2022-11-20T07:08:15;13.63;;;5.00;;
12838;SDS011;6486;51.034;5.262;2022-11-20T07:10:41;12.73;;;4.63;;
12838;SDS011;6486;51.034;5.262;2022-11-20T07:13:07;11.27;;;4.90;;
12838;SDS011;6486;51.034;5.262;2022-11-20T07:15:32;11.93;;;5.63;;
12838;SDS011;6486;51.034;5.262;2022-11-20T07:17:58;11.57;;;5.27;;
12838;SDS011;6486;51.034;5.262;2022-11-20T07:20:25;11.53;;;5.07;;
12838;SDS011;6486;51.034;5.262;2022-11-20T07:22:54;15.13;;;5.30;;
12838;SDS011;6486;51.034;5.262;2022-11-20T07:25:21;9.90;;;5.23;;
12838;SDS011;6486;51.034;5.262;2022-11-20T07:27:47;11.40;;;4.47;;
12838;SDS011;6486;51.034;5.262;2022-11-20T07:30:13;7.87;;;3.63;;
12838;SDS011;6486;51.034;5.262;2022-11-20T07:32:40;12.67;;;5.10;;
12838;SDS011;6486;51.034;5.262;2022-11-20T07:35:05;12.53;;;4.07;;
12838;SDS011;6486;51.034;5.262;2022-11-20T07:37:33;15.77;;;5.20;;
12838;SDS011;6486;51.034;5.262;2022-11-20T07:39:59;14.13;;;5.10;;
12838;SDS011;6486;51.034;5.262;2022-11-20T07:42:25;9.77;;;4.47;;
12838;SDS011;6486;51.034;5.262;2022-11-20T07:44:51;19.40;;;5.90;;
12838;SDS011;6486;51.034;5.262;2022-11-20T07:47:16;10.53;;;4.20;;
12838;SDS011;6486;51.034;5.262;2022-11-20T07:49:42;9.37;;;4.30;;
12838;SDS011;6486;51.034;5.262;2022-11-20T07:52:07;8.17;;;5.07;;
12838;SDS011;6486;51.034;5.262;2022-11-20T07:54:33;10.93;;;5.97;;
12838;SDS011;6486;51.034;5.262;2022-11-20T07:56:59;12.33;;;5.03;;
12838;SDS011;6486;51.034;5.262;2022-11-20T07:59:24;10.33;;;5.70;;
12838;SDS011;6486;51.034;5.262;2022-11-20T08:01:50;15.50;;;6.10;;
12838;SDS011;6486;51.034;5.262;2022-11-20T08:04:16;16.30;;;6.53;;
12838;SDS011;6486;51.034;5.262;2022-11-20T08:06:41;18.20;;;5.57;;
12838;SDS011;6486;51.034;5.262;2022-11-20T08:09:07;11.03;;;5.60;;
12838;SDS011;6486;51.034;5.262;2022-11-20T08:11:32;18.00;;;5.13;;
12838;SDS011;6486;51.034;5.262;2022-11-20T08:14:17;11.90;;;4.77;;
12838;SDS011;6486;51.034;5.262;2022-11-20T08:16:43;10.37;;;6.60;;
12838;SDS011;6486;51.034;5.262;2022-11-20T08:19:11;9.23;;;5.03;;
12838;SDS011;6486;51.034;5.262;2022-11-20T08:21:37;11.10;;;5.50;;
12838;SDS011;6486;51.034;5.262;2022-11-20T08:24:04;18.20;;;7.47;;
12838;SDS011;6486;51.034;5.262;2022-11-20T08:26:30;13.40;;;4.70;;
12838;SDS011;6486;51.034;5.262;2022-11-20T08:28:56;11.67;;;4.87;;
12838;SDS011;6486;51.034;5.262;2022-11-20T08:31:22;9.20;;;5.47;;
12838;SDS011;6486;51.034;5.262;2022-11-20T08:33:49;11.30;;;4.77;;
12838;SDS011;6486;51.034;5.262;2022-11-20T08:36:15;6.70;;;4.73;;
12838;SDS011;6486;51.034;5.262;2022-11-20T08:38:41;10.80;;;5.67;;
12838;SDS011;6486;51.034;5.262;2022-11-20T08:41:07;13.10;;;5.17;;
12838;SDS011;6486;51.034;5.262;2022-11-20T08:43:53;13.00;;;7.40;;
12838;SDS011;6486;51.034;5.262;2022-11-20T08:46:19;7.97;;;5.47;;
12838;SDS011;6486;51.034;5.262;2022-11-20T08:48:44;12.23;;;6.23;;
12838;SDS011;6486;51.034;5.262;2022-11-20T08:51:11;16.00;;;6.43;;
12838;SDS011;6486;51.034;5.262;2022-11-20T08:53:37;14.13;;;4.67;;
12838;SDS011;6486;51.034;5.262;2022-11-20T08:56:03;15.37;;;6.47;;
12838;SDS011;6486;51.034;5.262;2022-11-20T08:58:29;16.13;;;7.37;;
12838;SDS011;6486;51.034;5.262;2022-11-20T09:00:55;14.60;;;5.97;;
12838;SDS011;6486;51.034;5.262;2022-11-20T09:03:21;16.87;;;6.27;;
12838;SDS011;6486;51.034;5.262;2022-11-20T09:05:47;16.40;;;6.57;;
12838;SDS011;6486;51.034;5.262;2022-11-20T09:08:13;14.47;;;6.67;;
12838;SDS011;6486;51.034;5.262;2022-11-20T09:10:38;10.33;;;4.50;;
12838;SDS011;6486;51.034;5.262;2022-11-20T09:13:07;17.77;;;6.40;;
12838;SDS011;6486;51.034;5.262;2022-11-20T09:15:33;8.87;;;6.03;;
12838;SDS011;6486;51.034;5.262;2022-11-20T09:18:02;17.60;;;6.47;;
12838;SDS011;6486;51.034;5.262;2022-11-20T09:20:30;14.90;;;7.20;;
12838;SDS011;6486;51.034;5.262;2022-11-20T09:22:56;13.03;;;6.50;;
12838;SDS011;6486;51.034;5.262;2022-11-20T09:25:22;9.73;;;5.20;;
12838;SDS011;6486;51.034;5.262;2022-11-20T09:27:54;10.10;;;5.57;;
12838;SDS011;6486;51.034;5.262;2022-11-20T09:30:23;12.37;;;5.37;;
12838;SDS011;6486;51.034;5.262;2022-11-20T09:32:49;12.20;;;5.00;;
12838;SDS011;6486;51.034;5.262;2022-11-20T09:35:15;12.27;;;6.33;;
12838;SDS011;6486;51.034;5.262;2022-11-20T09:37:42;19.40;;;8.37;;
12838;SDS011;6486;51.034;5.262;2022-11-20T09:40:16;15.40;;;6.77;;
12838;SDS011;6486;51.034;5.262;2022-11-20T09:43:08;17.93;;;8.67;;
12838;SDS011;6486;51.034;5.262;2022-11-20T09:51:05;17.83;;;7.33;;
12838;SDS011;6486;51.034;5.262;2022-11-20T09:54:13;17.33;;;5.97;;
12838;SDS011;6486;51.034;5.262;2022-11-20T09:56:45;13.13;;;5.00;;
12838;SDS011;6486;51.034;5.262;2022-11-20T10:01:59;11.20;;;7.33;;
12838;SDS011;6486;51.034;5.262;2022-11-20T10:04:26;18.40;;;6.47;;
12838;SDS011;6486;51.034;5.262;2022-11-20T10:09:35;13.23;;;6.73;;
12838;SDS011;6486;51.034;5.262;2022-11-20T10:12:15;16.10;;;6.23;;
12838;SDS011;6486;51.034;5.262;2022-11-20T10:20:16;30.73;;;6.97;;
12838;SDS011;6486;51.034;5.262;2022-11-20T10:30:53;12.70;;;6.73;;
12838;SDS011;6486;51.034;5.262;2022-11-20T10:33:34;19.47;;;7.07;;
12838;SDS011;6486;51.034;5.262;2022-11-20T10:38:53;15.37;;;6.47;;
12838;SDS011;6486;51.034;5.262;2022-11-20T10:41:24;16.60;;;6.50;;
12838;SDS011;6486;51.034;5.262;2022-11-20T10:44:03;16.23;;;6.27;;
12838;SDS011;6486;51.034;5.262;2022-11-20T10:46:44;11.93;;;6.43;;
12838;SDS011;6486;51.034;5.262;2022-11-20T10:49:19;15.43;;;5.33;;
12838;SDS011;6486;51.034;5.262;2022-11-20T10:54:12;16.17;;;5.97;;
12838;SDS011;6486;51.034;5.262;2022-11-20T10:57:17;21.10;;;7.10;;
12838;SDS011;6486;51.034;5.262;2022-11-20T11:00:04;19.77;;;6.37;;
12838;SDS011;6486;51.034;5.262;2022-11-20T11:02:52;16.40;;;7.57;;
12838;SDS011;6486;51.034;5.262;2022-11-20T11:07:51;16.80;;;5.70;;
12838;SDS011;6486;51.034;5.262;2022-11-20T11:10:22;20.37;;;7.10;;
12838;SDS011;6486;51.034;5.262;2022-11-20T11:12:55;13.53;;;6.77;;
12838;SDS011;6486;51.034;5.262;2022-11-20T11:15:25;22.97;;;6.90;;
12838;SDS011;6486;51.034;5.262;2022-11-20T11:18:01;17.73;;;6.33;;
12838;SDS011;6486;51.034;5.262;2022-11-20T11:20:27;15.40;;;6.27;;
12838;SDS011;6486;51.034;5.262;2022-11-20T11:22:54;12.00;;;6.00;;
12838;SDS011;6486;51.034;5.262;2022-11-20T11:25:23;18.87;;;6.53;;
12838;SDS011;6486;51.034;5.262;2022-11-20T11:27:53;14.93;;;5.97;;
12838;SDS011;6486;51.034;5.262;2022-11-20T11:30:21;15.33;;;5.80;;
12838;SDS011;6486;51.034;5.262;2022-11-20T11:32:48;18.57;;;5.77;;
12838;SDS011;6486;51.034;5.262;2022-11-20T11:35:24;20.37;;;7.90;;
12838;SDS011;6486;51.034;5.262;2022-11-20T11:37:52;23.13;;;10.07;;
12838;SDS011;6486;51.034;5.262;2022-11-20T11:40:26;16.70;;;6.93;;
12838;SDS011;6486;51.034;5.262;2022-11-20T11:42:59;21.37;;;7.03;;
12838;SDS011;6486;51.034;5.262;2022-11-20T11:45:54;19.57;;;7.57;;
12838;SDS011;6486;51.034;5.262;2022-11-20T11:48:21;24.03;;;7.90;;
12838;SDS011;6486;51.034;5.262;2022-11-20T11:50:50;17.57;;;7.53;;
12838;SDS011;6486;51.034;5.262;2022-11-20T11:53:17;14.77;;;5.17;;
12838;SDS011;6486;51.034;5.262;2022-11-20T11:56:05;11.70;;;5.77;;
12838;SDS011;6486;51.034;5.262;2022-11-20T11:58:47;17.13;;;7.10;;
12838;SDS011;6486;51.034;5.262;2022-11-20T12:04:04;20.67;;;7.93;;
12838;SDS011;6486;51.034;5.262;2022-11-20T12:06:31;13.93;;;6.97;;
12838;SDS011;6486;51.034;5.262;2022-11-20T12:09:01;15.13;;;6.30;;
12838;SDS011;6486;51.034;5.262;2022-11-20T12:16:52;16.57;;;6.23;;
12838;SDS011;6486;51.034;5.262;2022-11-20T12:19:19;12.87;;;6.87;;
12838;SDS011;6486;51.034;5.262;2022-11-20T12:21:56;13.83;;;6.80;;
12838;SDS011;6486;51.034;5.262;2022-11-20T12:24:52;17.53;;;6.63;;
12838;SDS011;6486;51.034;5.262;2022-11-20T12:30:12;20.53;;;6.70;;
12838;SDS011;6486;51.034;5.262;2022-11-20T12:41:43;19.83;;;6.60;;
12838;SDS011;6486;51.034;5.262;2022-11-20T12:50:52;11.27;;;5.23;;
12838;SDS011;6486;51.034;5.262;2022-11-20T12:53:33;17.27;;;4.80;;
12838;SDS011;6486;51.034;5.262;2022-11-20T12:58:58;11.33;;;4.73;;
12838;SDS011;6486;51.034;5.262;2022-11-20T13:07:17;11.90;;;5.43;;
12838;SDS011;6486;51.034;5.262;2022-11-20T13:09:46;15.10;;;6.73;;
12838;SDS011;6486;51.034;5.262;2022-11-20T13:12:15;9.17;;;3.77;;
12838;SDS011;6486;51.034;5.262;2022-11-20T13:14:47;13.83;;;5.03;;
12838;SDS011;6486;51.034;5.262;2022-11-20T13:17:38;6.70;;;3.23;;
12838;SDS011;6486;51.034;5.262;2022-11-20T13:20:17;5.27;;;2.80;;
12838;SDS011;6486;51.034;5.262;2022-11-20T13:22:48;4.87;;;1.73;;
12838;SDS011;6486;51.034;5.262;2022-11-20T13:27:54;6.43;;;1.03;;
12838;SDS011;6486;51.034;5.262;2022-11-20T13:30:22;1.17;;;0.87;;
12838;SDS011;6486;51.034;5.262;2022-11-20T13:38:08;2.63;;;1.33;;
12838;SDS011;6486;51.034;5.262;2022-11-20T13:40:37;4.97;;;1.10;;
12838;SDS011;6486;51.034;5.262;2022-11-20T13:43:15;3.03;;;0.50;;
12838;SDS011;6486;51.034;5.262;2022-11-20T13:46:04;1.33;;;0.53;;
12838;SDS011;6486;51.034;5.262;2022-11-20T13:48:38;1.03;;;0.50;;
12838;SDS011;6486;51.034;5.262;2022-11-20T13:51:22;0.73;;;0.73;;
12838;SDS011;6486;51.034;5.262;2022-11-20T13:54:17;0.67;;;0.67;;
12838;SDS011;6486;51.034;5.262;2022-11-20T13:57:25;0.97;;;0.97;;
12838;SDS011;6486;51.034;5.262;2022-11-20T14:02:41;1.53;;;1.13;;
12838;SDS011;6486;51.034;5.262;2022-11-20T14:05:17;10.13;;;1.40;;
12838;SDS011;6486;51.034;5.262;2022-11-20T14:07:48;1.67;;;0.70;;
12838;SDS011;6486;51.034;5.262;2022-11-20T14:10:25;2.77;;;0.70;;
12838;SDS011;6486;51.034;5.262;2022-11-20T14:12:53;27.13;;;1.23;;
12838;SDS011;6486;51.034;5.262;2022-11-20T14:17:57;0.50;;;0.50;;
12838;SDS011;6486;51.034;5.262;2022-11-20T14:20:27;0.90;;;0.90;;
12838;SDS011;6486;51.034;5.262;2022-11-20T14:22:56;5.03;;;0.77;;
12838;SDS011;6486;51.034;5.262;2022-11-20T14:25:25;1.07;;;0.97;;
12838;SDS011;6486;51.034;5.262;2022-11-20T14:27:57;0.90;;;0.77;;
12838;SDS011;6486;51.034;5.262;2022-11-20T14:30:26;2.00;;;1.20;;
12838;SDS011;6486;51.034;5.262;2022-11-20T14:32:55;3.77;;;1.27;;
12838;SDS011;6486;51.034;5.262;2022-11-20T14:35:27;0.87;;;0.83;;
12838;SDS011;6486;51.034;5.262;2022-11-20T14:37:54;2.80;;;1.37;;
12838;SDS011;6486;51.034;5.262;2022-11-20T14:40:39;1.10;;;0.90;;
12838;SDS011;6486;51.034;5.262;2022-11-20T14:43:17;1.43;;;1.07;;
12838;SDS011;6486;51.034;5.262;2022-11-20T14:45:43;1.20;;;0.97;;
12838;SDS011;6486;51.034;5.262;2022-11-20T14:48:22;0.93;;;0.80;;
12838;SDS011;6486;51.034;5.262;2022-11-20T14:50:53;1.83;;;1.20;;
12838;SDS011;6486;51.034;5.262;2022-11-20T14:53:22;0.87;;;0.83;;
12838;SDS011;6486;51.034;5.262;2022-11-20T14:55:54;0.70;;;0.70;;
12838;SDS011;6486;51.034;5.262;2022-11-20T14:58:23;0.90;;;0.90;;
12838;SDS011;6486;51.034;5.262;2022-11-20T15:01:11;3.30;;;1.53;;
12838;SDS011;6486;51.034;5.262;2022-11-20T15:03:39;1.27;;;0.70;;
12838;SDS011;6486;51.034;5.262;2022-11-20T15:06:06;3.77;;;1.60;;
12838;SDS011;6486;51.034;5.262;2022-11-20T15:08:35;2.63;;;0.80;;
12838;SDS011;6486;51.034;5.262;2022-11-20T15:11:01;8.20;;;0.83;;
12838;SDS011;6486;51.034;5.262;2022-11-20T15:13:37;1.70;;;1.20;;
12838;SDS011;6486;51.034;5.262;2022-11-20T15:16:08;1.33;;;1.23;;
12838;SDS011;6486;51.034;5.262;2022-11-20T15:18:41;0.60;;;0.60;;
12838;SDS011;6486;51.034;5.262;2022-11-20T15:21:10;1.60;;;1.07;;
12838;SDS011;6486;51.034;5.262;2022-11-20T15:23:38;6.30;;;1.43;;
12838;SDS011;6486;51.034;5.262;2022-11-20T15:26:04;1.97;;;0.93;;
12838;SDS011;6486;51.034;5.262;2022-11-20T15:28:32;2.03;;;1.00;;
12838;SDS011;6486;51.034;5.262;2022-11-20T15:31:00;1.80;;;1.27;;
12838;SDS011;6486;51.034;5.262;2022-11-20T15:33:27;0.57;;;0.50;;
12838;SDS011;6486;51.034;5.262;2022-11-20T15:35:53;1.47;;;0.73;;
12838;SDS011;6486;51.034;5.262;2022-11-20T15:38:18;0.87;;;0.83;;
12838;SDS011;6486;51.034;5.262;2022-11-20T15:40:44;1.90;;;0.97;;
12838;SDS011;6486;51.034;5.262;2022-11-20T15:43:09;1.07;;;0.70;;
12838;SDS011;6486;51.034;5.262;2022-11-20T15:45:37;1.40;;;1.20;;
12838;SDS011;6486;51.034;5.262;2022-11-20T15:48:05;0.73;;;0.73;;
12838;SDS011;6486;51.034;5.262;2022-11-20T15:53:12;2.10;;;1.53;;
12838;SDS011;6486;51.034;5.262;2022-11-20T15:55:38;1.07;;;1.00;;
12838;SDS011;6486;51.034;5.262;2022-11-20T15:58:03;0.93;;;0.90;;
12838;SDS011;6486;51.034;5.262;2022-11-20T16:00:29;7.33;;;1.17;;
12838;SDS011;6486;51.034;5.262;2022-11-20T16:02:55;1.97;;;1.13;;
12838;SDS011;6486;51.034;5.262;2022-11-20T16:05:20;2.37;;;1.20;;
12838;SDS011;6486;51.034;5.262;2022-11-20T16:07:48;1.20;;;0.87;;
12838;SDS011;6486;51.034;5.262;2022-11-20T16:10:15;2.40;;;1.23;;
12838;SDS011;6486;51.034;5.262;2022-11-20T16:12:41;1.13;;;1.07;;
12838;SDS011;6486;51.034;5.262;2022-11-20T16:15:25;1.07;;;1.07;;
12838;SDS011;6486;51.034;5.262;2022-11-20T16:18:10;0.83;;;0.73;;
12838;SDS011;6486;51.034;5.262;2022-11-20T16:20:36;0.50;;;0.47;;
12838;SDS011;6486;51.034;5.262;2022-11-20T16:23:03;1.93;;;1.00;;
12838;SDS011;6486;51.034;5.262;2022-11-20T16:25:29;6.80;;;1.47;;
12838;SDS011;6486;51.034;5.262;2022-11-20T16:27:55;1.63;;;1.43;;
12838;SDS011;6486;51.034;5.262;2022-11-20T16:30:20;1.77;;;0.90;;
12838;SDS011;6486;51.034;5.262;2022-11-20T16:32:47;1.50;;;1.40;;
12838;SDS011;6486;51.034;5.262;2022-11-20T16:35:13;1.77;;;1.33;;